Terminal Aerodrome Forecast
Issued by NWS

Home | Current Version | Previous Version | Text Only | Print | Product List | Glossary On
Versions: 1 2 3 4 5 6 7 8 9 10 11 12 13 14 15 16 17 18
000
FTUS43 KJKL 232300
TAFSME
TAF
KSME 232331Z 2400/2424 VRB03KT P6SM BKN200
     FM240900 00000KT 4SM BR BKN200
     FM241400 34005KT P6SM FEW150 SCT250=

USA.gov is the U.S. government's official web portal to all federal, state and local government web resources and services.